Time;durP1;ratioP1;P1;durP2;ratioP2;P2;SDS_P1;SDS_P2;PMS_P1;PMS_P2;Temp;Humidity;BMP_temperature;BMP_pressure;BME280_temperature;BME280_humidity;BME280_pressure;Samples;Min_cycle;Max_cycle;Signal;HPM_P1;HPM_P2
2023/01/17 00:01:50;;;;;;;7.70;4.90;;;4.60;99.90;;;;;;5084979;28;20481;-83
2023/01/17 00:09:52;;;;;;;5.20;4.67;;;4.60;99.90;;;;;;5109472;28;20820;-83
2023/01/17 00:12:19;;;;;;;6.37;4.70;;;4.60;99.90;;;;;;5110864;28;20458;-82
2023/01/17 00:14:46;;;;;;;6.03;4.90;;;4.60;99.90;;;;;;5083317;28;20854;-82
2023/01/17 00:17:13;;;;;;;7.10;4.70;;;4.60;99.90;;;;;;5077962;28;20865;-82
2023/01/17 01:35:06;;;;;;;4.80;3.80;;;4.30;99.90;;;;;;5105363;28;20534;-81
2023/01/17 01:37:33;;;;;;;5.37;4.23;;;4.20;99.90;;;;;;5110471;28;20476;-82
2023/01/17 01:40:00;;;;;;;3.97;3.50;;;4.20;99.90;;;;;;5118490;28;21018;-81
2023/01/17 01:42:26;;;;;;;4.60;3.40;;;4.20;99.90;;;;;;5117701;28;20451;-81
2023/01/17 01:44:55;;;;;;;3.70;2.83;;;4.20;99.90;;;;;;5100513;28;20970;-82
2023/01/17 01:47:26;;;;;;;4.00;3.07;;;4.20;99.90;;;;;;5119723;28;20895;-81
2023/01/17 01:49:53;;;;;;;5.27;3.23;;;4.20;99.90;;;;;;5118007;28;20457;-84
2023/01/17 01:52:23;;;;;;;6.70;2.23;;;4.20;99.90;;;;;;5117310;28;20536;-85
2023/01/17 01:54:53;;;;;;;3.20;2.70;;;4.10;99.90;;;;;;5098379;28;20565;-85
2023/01/17 01:57:23;;;;;;;3.63;2.70;;;4.20;99.90;;;;;;5097227;28;20584;-85
2023/01/17 01:59:56;;;;;;;5.07;2.90;;;4.10;99.90;;;;;;5110604;28;20479;-85
2023/01/17 02:02:24;;;;;;;5.57;3.87;;;4.10;99.90;;;;;;5115555;28;20444;-82
2023/01/17 02:04:51;;;;;;;7.30;3.30;;;4.10;99.90;;;;;;5110217;28;20472;-86
2023/01/17 02:07:22;;;;;;;7.80;4.10;;;4.10;99.90;;;;;;5118410;28;20450;-83
2023/01/17 02:09:49;;;;;;;4.20;3.80;;;4.10;99.90;;;;;;5114628;28;20954;-84
2023/01/17 02:12:18;;;;;;;6.33;4.10;;;4.10;99.90;;;;;;5100758;28;20540;-83
2023/01/17 02:14:45;;;;;;;3.20;2.23;;;4.00;99.90;;;;;;5122603;28;20503;-83
2023/01/17 02:17:20;;;;;;;6.77;3.33;;;3.80;99.90;;;;;;5103694;28;20522;-81
2023/01/17 02:20:33;;;;;;;4.00;2.40;;;3.60;99.90;;;;;;5086517;28;20733;-84
2023/01/17 02:23:38;;;;;;;5.37;2.80;;;3.40;99.90;;;;;;5091517;28;20482;-84
2023/01/17 02:26:33;;;;;;;2.20;2.00;;;3.20;99.90;;;;;;5095139;28;20465;-84
2023/01/17 02:29:23;;;;;;;4.30;2.63;;;3.10;99.90;;;;;;5097122;28;20458;-83
2023/01/17 02:31:57;;;;;;;4.73;3.57;;;3.00;99.90;;;;;;5094429;28;20458;-83
2023/01/17 02:34:31;;;;;;;4.63;3.70;;;2.90;99.90;;;;;;5101933;28;20563;-88
2023/01/17 02:37:04;;;;;;;4.67;3.50;;;2.90;99.90;;;;;;5107154;28;20456;-83
2023/01/17 02:39:37;;;;;;;4.10;3.47;;;3.00;99.90;;;;;;5097719;28;20430;-84
2023/01/17 02:42:09;;;;;;;8.57;3.13;;;3.00;99.90;;;;;;5107104;28;20532;-85
2023/01/17 02:44:41;;;;;;;4.57;2.97;;;3.00;99.90;;;;;;5102741;28;20476;-85
2023/01/17 02:47:22;;;;;;;3.10;1.90;;;3.00;99.90;;;;;;5099164;28;20449;-84
2023/01/17 02:49:51;;;;;;;2.73;2.00;;;3.00;99.90;;;;;;5096538;28;20458;-83
2023/01/17 02:52:44;;;;;;;4.00;2.23;;;2.80;99.90;;;;;;5095348;28;20446;-84
2023/01/17 02:55:26;;;;;;;3.13;2.30;;;2.60;99.90;;;;;;5095720;28;20498;-82
2023/01/17 02:58:14;;;;;;;2.33;2.03;;;2.60;99.90;;;;;;5096753;28;20450;-84
2023/01/17 03:00:51;;;;;;;3.10;1.90;;;2.40;99.90;;;;;;5097753;28;20438;-83
2023/01/17 03:03:26;;;;;;;3.83;2.20;;;2.20;99.90;;;;;;5103036;28;20441;-84
2023/01/17 03:05:59;;;;;;;2.23;1.40;;;2.10;99.90;;;;;;5134773;28;20431;-83
2023/01/17 03:08:27;;;;;;;2.33;1.70;;;2.00;99.90;;;;;;5120283;28;20461;-84
2023/01/17 03:10:54;;;;;;;1.97;1.30;;;1.90;99.90;;;;;;5112833;28;20480;-83
2023/01/17 03:13:21;;;;;;;2.37;1.47;;;1.80;99.90;;;;;;5106465;28;20454;-84
2023/01/17 03:15:49;;;;;;;2.22;1.65;;;1.70;99.90;;;;;;5100780;28;20528;-83
2023/01/17 03:18:16;;;;;;;3.43;2.33;;;1.60;99.90;;;;;;5113340;28;20195;-83
2023/01/17 03:20:44;;;;;;;4.07;2.92;;;1.60;99.90;;;;;;5115716;28;20451;-83
2023/01/17 03:23:11;;;;;;;4.53;2.80;;;1.60;99.90;;;;;;5100860;28;20215;-83
2023/01/17 03:25:38;;;;;;;4.55;2.90;;;1.60;99.90;;;;;;5099599;28;20249;-83
2023/01/17 03:28:05;;;;;;;3.58;2.78;;;1.60;99.90;;;;;;5113944;28;20287;-82
2023/01/17 03:30:32;;;;;;;4.20;3.00;;;1.70;99.90;;;;;;5100830;28;20267;-82
2023/01/17 03:32:59;;;;;;;3.90;2.83;;;1.70;99.90;;;;;;5118795;28;20210;-82
2023/01/17 03:35:27;;;;;;;4.73;3.03;;;1.70;99.90;;;;;;5118428;28;20317;-83
2023/01/17 03:37:55;;;;;;;6.20;3.63;;;1.80;99.90;;;;;;5109428;28;20457;-83
2023/01/17 03:40:22;;;;;;;5.33;3.57;;;1.80;99.90;;;;;;5118747;28;20520;-82
2023/01/17 03:42:49;;;;;;;5.72;4.68;;;1.80;99.90;;;;;;5116476;28;20456;-83
2023/01/17 03:45:16;;;;;;;5.80;4.15;;;1.70;99.90;;;;;;5098045;28;20318;-83
2023/01/17 03:47:42;;;;;;;6.13;4.07;;;1.70;99.90;;;;;;5098580;28;20203;-83
2023/01/17 03:50:11;;;;;;;7.23;5.27;;;1.80;99.90;;;;;;5098698;28;20582;-84
2023/01/17 03:52:38;;;;;;;11.00;7.20;;;1.80;99.90;;;;;;5101674;28;20450;-84
2023/01/17 03:55:07;;;;;;;9.27;6.40;;;1.90;99.90;;;;;;5119676;28;20486;-85
2023/01/17 03:57:34;;;;;;;6.78;5.32;;;1.90;99.90;;;;;;5109407;28;21071;-84
2023/01/17 04:00:01;;;;;;;9.40;6.53;;;1.90;99.90;;;;;;5100816;28;20299;-84
2023/01/17 04:02:28;;;;;;;6.80;5.13;;;2.00;99.90;;;;;;5101961;28;20484;-86
2023/01/17 04:04:55;;;;;;;6.17;4.90;;;2.10;99.90;;;;;;5102605;28;20537;-84
2023/01/17 04:07:21;;;;;;;7.00;4.57;;;2.10;99.90;;;;;;5105613;28;20541;-85
2023/01/17 04:09:48;;;;;;;6.47;4.90;;;2.20;99.90;;;;;;5116530;28;20192;-85
2023/01/17 04:12:16;;;;;;;7.67;4.97;;;2.30;99.90;;;;;;5105517;28;20496;-84
2023/01/17 04:14:43;;;;;;;5.53;4.30;;;2.30;99.90;;;;;;5112863;28;20542;-85
2023/01/17 04:17:11;;;;;;;6.33;3.73;;;2.30;99.90;;;;;;5123326;28;20439;-86
2023/01/17 04:19:39;;;;;;;6.50;4.33;;;2.40;99.90;;;;;;5124999;28;20480;-85
2023/01/17 04:22:06;;;;;;;4.20;3.30;;;2.50;99.90;;;;;;5124940;28;20454;-84
2023/01/17 04:24:33;;;;;;;4.27;3.40;;;2.50;99.90;;;;;;5123578;28;20476;-84
2023/01/17 04:27:00;;;;;;;4.87;3.50;;;2.60;99.90;;;;;;5114684;28;20450;-83
2023/01/17 04:29:28;;;;;;;7.43;2.80;;;2.60;99.90;;;;;;5102969;28;20485;-84
2023/01/17 04:31:55;;;;;;;5.00;2.80;;;2.60;99.90;;;;;;5109666;28;20429;-85
2023/01/17 04:34:22;;;;;;;3.23;2.67;;;2.50;99.90;;;;;;5111125;28;20562;-83
2023/01/17 04:36:49;;;;;;;4.10;2.93;;;2.50;99.90;;;;;;5102033;28;20481;-84
2023/01/17 04:39:16;;;;;;;4.00;2.90;;;2.50;99.90;;;;;;5102193;28;20473;-83
2023/01/17 04:41:43;;;;;;;5.70;2.63;;;2.60;99.90;;;;;;5104797;28;20456;-84
2023/01/17 04:44:10;;;;;;;3.20;2.40;;;2.50;99.90;;;;;;5115929;28;20473;-86
2023/01/17 04:46:38;;;;;;;4.10;2.67;;;2.60;99.90;;;;;;5111309;28;20602;-83
2023/01/17 04:49:05;;;;;;;3.60;2.80;;;2.70;99.90;;;;;;5109481;28;20482;-82
2023/01/17 04:51:32;;;;;;;6.17;3.47;;;2.70;99.90;;;;;;5118691;28;21063;-83
2023/01/17 04:53:59;;;;;;;5.57;3.10;;;2.70;99.90;;;;;;5107071;28;20491;-86
2023/01/17 04:56:26;;;;;;;3.90;2.83;;;2.70;99.90;;;;;;5112681;28;20484;-86
2023/01/17 04:58:53;;;;;;;6.07;3.17;;;2.70;99.90;;;;;;5079222;28;20904;-85
2023/01/17 05:01:20;;;;;;;6.13;3.50;;;2.80;99.90;;;;;;5076471;28;20453;-85
2023/01/17 05:03:48;;;;;;;7.70;3.77;;;2.80;99.90;;;;;;5076971;28;20481;-85
2023/01/17 05:06:15;;;;;;;6.10;4.17;;;2.70;99.90;;;;;;5076698;28;20972;-85
2023/01/17 05:08:42;;;;;;;7.70;4.75;;;2.80;99.90;;;;;;5076953;28;20431;-85
2023/01/17 05:11:09;;;;;;;8.93;4.43;;;2.70;99.90;;;;;;5100936;28;20196;-85
